createdAt,value
2019-04-01T00:00:38.723Z,56.91
2019-04-01T00:03:09.196Z,57.27
2019-04-01T00:05:37.905Z,57.29
2019-04-01T00:08:06.625Z,57.11
2019-04-01T00:10:35.404Z,56.76
2019-04-01T00:13:04.067Z,57.19
2019-04-01T00:15:32.746Z,57.10
2019-04-01T00:18:01.440Z,56.88
2019-04-01T00:20:30.126Z,58.04
2019-04-01T00:22:58.921Z,58.69
2019-04-01T00:25:27.672Z,58.92
2019-04-01T00:27:56.361Z,58.35
2019-04-01T00:30:25.043Z,58.11
2019-04-01T00:32:53.766Z,58.45
2019-04-01T00:35:22.472Z,58.25
2019-04-01T00:37:51.143Z,58.41
2019-04-01T00:40:19.829Z,59.27
2019-04-01T00:42:52.850Z,58.97
2019-04-01T00:45:25.831Z,58.89
2019-04-01T00:47:54.517Z,59.87
2019-04-01T00:50:23.204Z,59.22
2019-04-01T00:52:51.882Z,59.85
2019-04-01T00:55:20.630Z,59.67
2019-04-01T00:57:49.312Z,58.58
2019-04-01T01:00:19.138Z,57.88
2019-04-01T01:02:47.838Z,57.92
2019-04-01T01:05:16.515Z,58.53
2019-04-01T01:07:45.198Z,58.95
2019-04-01T01:10:14.325Z,58.70
2019-04-01T01:12:43.002Z,58.06
2019-04-01T01:15:11.921Z,58.69
2019-04-01T01:17:40.605Z,58.83
2019-04-01T01:20:09.524Z,59.00
2019-04-01T01:22:38.245Z,59.70
2019-04-01T01:25:07.035Z,59.08
2019-04-01T01:27:35.717Z,59.33
2019-04-01T01:30:06.287Z,59.24
2019-04-01T01:32:34.987Z,59.42
2019-04-01T01:35:03.639Z,60.07
2019-04-01T01:37:32.316Z,60.38
2019-04-01T01:40:00.996Z,60.69
2019-04-01T01:42:29.809Z,60.97
2019-04-01T01:44:58.500Z,61.24
2019-04-01T01:47:27.198Z,61.67
2019-04-01T01:49:55.887Z,62.21
2019-04-01T01:52:24.557Z,60.88
2019-04-01T01:54:53.237Z,59.52
2019-04-01T01:57:21.897Z,59.88
2019-04-01T01:59:50.598Z,59.48
2019-04-01T02:02:19.250Z,59.66
2019-04-01T02:04:47.941Z,59.81
2019-04-01T02:07:16.620Z,59.97
2019-04-01T02:09:45.294Z,60.45
2019-04-01T02:12:13.970Z,61.47
2019-04-01T02:14:42.660Z,60.55
2019-04-01T02:17:11.336Z,60.45
2019-04-01T02:19:40.021Z,60.76
2019-04-01T02:22:08.700Z,60.46
2019-04-01T02:24:37.425Z,61.48
2019-04-01T02:27:06.206Z,60.27
2019-04-01T02:29:34.913Z,60.43
2019-04-01T02:32:03.598Z,60.30
2019-04-01T02:34:32.257Z,60.63
2019-04-01T02:37:00.992Z,60.96
2019-04-01T02:39:29.610Z,60.83
2019-04-01T02:41:58.289Z,60.70
2019-04-01T02:44:26.970Z,60.85
2019-04-01T02:46:55.653Z,60.83
2019-04-01T02:49:24.348Z,60.73
2019-04-01T02:51:53.010Z,61.04
2019-04-01T02:54:21.724Z,61.22
2019-04-01T02:56:50.410Z,61.24
2019-04-01T02:59:19.099Z,61.73
2019-04-01T03:01:47.793Z,62.25
2019-04-01T03:04:16.480Z,62.47
2019-04-01T03:06:45.152Z,62.87
2019-04-01T03:09:13.868Z,62.99
2019-04-01T03:11:42.544Z,63.65
2019-04-01T03:14:11.194Z,63.66
2019-04-01T03:16:39.884Z,63.54
2019-04-01T03:19:08.865Z,63.86
2019-04-01T03:21:37.557Z,64.22
2019-04-01T03:24:06.236Z,63.19
2019-04-01T03:26:34.960Z,63.49
2019-04-01T03:29:03.663Z,63.45
2019-04-01T03:31:32.570Z,63.33
2019-04-01T03:34:01.313Z,63.35
2019-04-01T03:36:29.992Z,63.22
2019-04-01T03:38:58.659Z,62.75
2019-04-01T03:41:27.346Z,63.18
2019-04-01T03:43:56.034Z,63.11
2019-04-01T03:46:24.732Z,63.01
2019-04-01T03:48:53.505Z,63.62
2019-04-01T03:51:22.189Z,63.22
2019-04-01T03:53:50.886Z,63.31
2019-04-01T03:56:19.594Z,63.69
2019-04-01T03:58:48.262Z,63.93
2019-04-01T04:01:17.147Z,63.48
2019-04-01T04:03:45.922Z,63.71
2019-04-01T04:06:14.629Z,63.63
2019-04-01T04:08:43.339Z,63.52
2019-04-01T04:11:12.023Z,63.83
2019-04-01T04:13:40.722Z,64.04
2019-04-01T04:16:09.399Z,64.31
2019-04-01T04:18:38.076Z,63.96
2019-04-01T04:21:06.895Z,63.98
2019-04-01T04:23:35.561Z,63.34
2019-04-01T04:26:04.246Z,63.25
2019-04-01T04:28:32.908Z,63.13
2019-04-01T04:31:01.591Z,63.03
2019-04-01T04:33:30.259Z,62.99
2019-04-01T04:35:58.967Z,63.05
2019-04-01T04:38:27.710Z,62.62
2019-04-01T04:40:56.430Z,62.75
2019-04-01T04:43:25.117Z,62.78
2019-04-01T04:45:53.828Z,61.92
2019-04-01T04:48:22.485Z,62.81
2019-04-01T04:50:51.170Z,60.85
2019-04-01T04:53:19.858Z,60.77
2019-04-01T04:55:48.539Z,60.58
2019-04-01T04:58:17.227Z,60.35
2019-04-01T05:00:45.919Z,59.83
2019-04-01T05:03:14.682Z,59.57
2019-04-01T05:05:43.360Z,58.98
2019-04-01T05:08:12.052Z,59.04
2019-04-01T05:10:40.754Z,58.84
2019-04-01T05:13:09.445Z,58.54
2019-04-01T05:15:38.178Z,57.87
2019-04-01T05:18:07.215Z,57.21
2019-04-01T05:20:37.910Z,56.44
2019-04-01T05:23:07.294Z,55.54
2019-04-01T05:25:37.619Z,55.12
2019-04-01T05:28:06.304Z,55.57
2019-04-01T05:30:37.068Z,55.68
2019-04-01T05:33:05.800Z,56.11
2019-04-01T05:35:37.448Z,55.82
2019-04-01T05:38:06.934Z,55.35
2019-04-01T05:40:35.878Z,55.10
2019-04-01T05:43:04.764Z,54.58
2019-04-01T05:45:33.650Z,54.23
2019-04-01T05:48:02.458Z,54.02
2019-04-01T05:50:31.796Z,53.14
2019-04-01T05:53:00.714Z,52.65
2019-04-01T05:55:29.411Z,52.05
2019-04-01T05:57:58.815Z,51.95
2019-04-01T06:00:29.233Z,51.13
2019-04-01T06:02:59.562Z,50.48
2019-04-01T06:05:28.637Z,48.85
2019-04-01T06:07:57.693Z,47.02
2019-04-01T06:10:26.398Z,45.06
2019-04-01T06:12:55.388Z,43.19
2019-04-01T06:15:24.452Z,41.86
2019-04-01T06:17:53.259Z,41.49
2019-04-01T06:20:21.972Z,39.89
2019-04-01T06:22:50.682Z,37.78
2019-04-01T06:25:19.441Z,36.96
2019-04-01T06:27:48.616Z,35.60
2019-04-01T06:30:17.438Z,34.87
2019-04-01T06:32:49.296Z,34.20
2019-04-01T06:35:18.078Z,33.81
2019-04-01T06:37:47.054Z,32.51
2019-04-01T06:40:16.056Z,32.76
2019-04-01T06:42:44.887Z,31.90
2019-04-01T06:45:14.067Z,30.69
2019-04-01T06:47:42.869Z,30.69
2019-04-01T06:50:12.008Z,32.48
2019-04-01T06:52:41.663Z,32.21
2019-04-01T06:55:10.355Z,31.92
2019-04-01T06:57:40.308Z,31.39
2019-04-01T07:00:09.828Z,29.80
2019-04-01T07:02:38.883Z,27.82
2019-04-01T07:05:08.026Z,27.26
2019-04-01T07:07:37.233Z,27.11
2019-04-01T07:10:06.660Z,28.16
2019-04-01T07:12:36.016Z,27.94
2019-04-01T07:15:07.472Z,26.69
2019-04-01T07:17:36.177Z,25.60
2019-04-01T07:20:08.754Z,25.37
2019-04-01T07:22:36.969Z,24.94
2019-04-01T07:25:06.078Z,24.71
2019-04-01T07:27:38.632Z,24.07
2019-04-01T07:30:07.970Z,24.14
2019-04-01T07:32:36.747Z,23.59
2019-04-01T07:35:06.562Z,23.41
2019-04-01T07:37:35.626Z,22.81
2019-04-01T07:40:06.671Z,22.41
2019-04-01T07:42:36.165Z,21.65
2019-04-01T07:45:07.113Z,21.13
2019-04-01T07:47:36.007Z,20.85
2019-04-01T07:50:06.434Z,20.64
2019-04-01T07:52:35.356Z,20.21
2019-04-01T07:55:05.605Z,19.96
2019-04-01T07:57:36.323Z,19.70
2019-04-01T08:00:06.869Z,18.99
2019-04-01T08:02:35.802Z,18.97
2019-04-01T08:05:05.638Z,18.32
2019-04-01T08:07:34.866Z,18.37
2019-04-01T08:10:05.282Z,18.44
2019-04-01T08:12:34.571Z,17.85
2019-04-01T08:15:06.446Z,17.82
2019-04-01T08:17:35.715Z,18.90
2019-04-01T08:20:05.139Z,18.72
2019-04-01T08:22:33.819Z,18.97
2019-04-01T08:28:16.883Z,17.11
2019-04-01T08:30:45.774Z,16.77
2019-04-01T08:33:15.416Z,16.77
2019-04-01T08:35:44.180Z,16.41
2019-04-01T08:38:13.480Z,16.00
2019-04-01T08:40:42.476Z,16.60
2019-04-01T08:43:11.336Z,18.21
2019-04-01T08:45:40.272Z,18.42
2019-04-01T08:48:18.045Z,17.24
2019-04-01T08:51:20.431Z,16.34
2019-04-01T08:54:09.810Z,16.13
2019-04-01T08:56:39.249Z,15.96
2019-04-01T08:59:09.812Z,16.45
2019-04-01T09:01:38.967Z,15.79
2019-04-01T09:04:08.158Z,15.14
2019-04-01T09:06:37.182Z,14.62
2019-04-01T09:09:07.153Z,14.41
2019-04-01T09:11:38.351Z,14.51
2019-04-01T09:14:07.341Z,13.91
2019-04-01T09:16:36.376Z,14.53
2019-04-01T09:19:06.517Z,13.88
2019-04-01T09:21:35.854Z,14.25
2019-04-01T09:27:23.117Z,16.00
2019-04-01T09:29:57.371Z,16.53
2019-04-01T09:32:58.727Z,15.74
2019-04-01T09:35:27.659Z,14.96
2019-04-01T09:37:56.399Z,14.61
2019-04-01T09:40:26.230Z,13.70
2019-04-01T09:42:55.090Z,15.58
2019-04-01T09:45:24.040Z,14.59
2019-04-01T09:47:52.913Z,14.10
2019-04-01T09:50:21.768Z,14.62
2019-04-01T09:52:50.804Z,13.83
2019-04-01T09:55:19.643Z,13.54
2019-04-01T09:57:49.292Z,13.45
2019-04-01T10:00:18.091Z,13.34
2019-04-01T10:02:46.848Z,13.54
2019-04-01T10:05:16.334Z,13.39
2019-04-01T10:07:45.436Z,12.62
2019-04-01T10:10:14.826Z,12.47
2019-04-01T10:12:43.657Z,12.38
2019-04-01T10:15:16.078Z,11.75
2019-04-01T10:17:45.515Z,11.49
2019-04-01T10:20:16.161Z,12.74
2019-04-01T10:22:47.456Z,12.97
2019-04-01T10:25:16.662Z,13.57
2019-04-01T10:27:47.429Z,12.43
2019-04-01T10:30:17.436Z,11.94
2019-04-01T10:32:46.600Z,11.08
2019-04-01T10:35:15.479Z,11.18
2019-04-01T10:37:44.252Z,11.31
2019-04-01T10:40:13.587Z,11.76
2019-04-01T10:42:42.311Z,11.26
2019-04-01T10:45:37.010Z,11.03
2019-04-01T10:48:06.293Z,10.73
2019-04-01T10:50:35.321Z,10.61
2019-04-01T10:56:36.063Z,10.55
2019-04-01T10:59:18.621Z,10.54
2019-04-01T11:01:48.285Z,10.35
2019-04-01T11:04:17.208Z,9.92
2019-04-01T11:06:46.182Z,10.32
2019-04-01T11:09:37.760Z,10.24
2019-04-01T11:11:55.957Z,10.20
2019-04-01T11:14:25.676Z,10.66
2019-04-01T11:16:54.963Z,11.15
2019-04-01T11:19:23.756Z,10.04
2019-04-01T11:21:52.416Z,9.95
2019-04-01T11:24:21.758Z,10.21
2019-04-01T11:27:20.350Z,10.15
2019-04-01T11:29:49.029Z,10.31
2019-04-01T11:32:17.827Z,10.90
2019-04-01T11:34:47.153Z,10.28
2019-04-01T11:40:28.391Z,10.85
2019-04-01T11:45:55.834Z,10.79
2019-04-01T11:48:24.631Z,11.93
2019-04-01T11:50:53.977Z,11.76
2019-04-01T11:53:23.019Z,12.27
2019-04-01T11:55:51.842Z,11.64
2019-04-01T11:58:20.657Z,11.73
2019-04-01T12:00:49.384Z,11.02
2019-04-01T12:03:19.088Z,10.58
2019-04-01T12:05:48.930Z,10.70
2019-04-01T12:08:17.636Z,10.23
2019-04-01T12:10:46.906Z,9.92
2019-04-01T12:13:15.589Z,11.16
2019-04-01T12:15:44.634Z,11.20
2019-04-01T12:18:13.335Z,11.53
2019-04-01T12:20:42.096Z,11.60
2019-04-01T12:23:10.823Z,11.74
2019-04-01T12:25:39.497Z,11.27
2019-04-01T12:28:08.294Z,10.90
2019-04-01T12:30:37.074Z,11.36
2019-04-01T12:33:05.880Z,11.30
2019-04-01T12:35:35.642Z,11.53
2019-04-01T12:38:05.010Z,11.59
2019-04-01T12:40:33.718Z,10.78
2019-04-01T12:43:02.532Z,11.23
2019-04-01T12:45:31.234Z,12.78
2019-04-01T12:48:00.024Z,13.62
2019-04-01T12:50:28.744Z,14.06
2019-04-01T12:52:57.432Z,13.99
2019-04-01T12:55:26.241Z,12.72
2019-04-01T12:57:54.953Z,11.95
2019-04-01T13:00:23.653Z,12.28
2019-04-01T13:02:52.580Z,12.90
2019-04-01T13:05:22.064Z,13.40
2019-04-01T13:07:54.189Z,12.69
2019-04-01T13:10:22.523Z,12.21
2019-04-01T13:12:53.993Z,12.21
2019-04-01T13:15:21.849Z,12.03
2019-04-01T13:17:50.667Z,12.31
2019-04-01T13:20:19.344Z,12.24
2019-04-01T13:22:49.854Z,12.63
2019-04-01T13:25:18.520Z,12.98
2019-04-01T13:27:47.238Z,14.99
2019-04-01T13:30:16.535Z,13.88
2019-04-01T13:32:46.363Z,13.38
2019-04-01T13:35:15.155Z,13.63
2019-04-01T13:37:43.863Z,13.82
2019-04-01T13:40:13.326Z,13.36
2019-04-01T13:42:43.336Z,12.93
2019-04-01T13:45:12.744Z,12.93
2019-04-01T13:47:41.549Z,12.87
2019-04-01T13:50:16.470Z,12.94
2019-04-01T13:52:45.539Z,12.75
2019-04-01T13:55:14.544Z,12.94
2019-04-01T13:57:43.390Z,13.60
2019-04-01T14:00:12.644Z,14.51
2019-04-01T14:02:41.472Z,15.43
2019-04-01T14:05:10.587Z,14.88
2019-04-01T14:07:39.293Z,15.28
2019-04-01T14:10:08.211Z,15.61
2019-04-01T14:12:36.836Z,14.85
2019-04-01T14:15:10.230Z,16.69
2019-04-01T14:17:39.039Z,16.17
2019-04-01T14:20:07.954Z,16.77
2019-04-01T14:22:36.867Z,17.58
2019-04-01T14:25:07.563Z,17.21
2019-04-01T14:27:36.390Z,16.73
2019-04-01T14:30:06.891Z,15.84
2019-04-01T14:32:36.428Z,15.91
2019-04-01T14:35:06.736Z,16.52
2019-04-01T14:37:35.398Z,16.59
2019-04-01T14:40:05.704Z,16.53
2019-04-01T14:42:37.152Z,16.70
2019-04-01T14:45:06.037Z,18.02
2019-04-01T14:47:34.986Z,19.07
2019-04-01T14:50:07.541Z,18.73
2019-04-01T14:52:34.608Z,17.88
2019-04-01T14:55:03.317Z,17.69
2019-04-01T14:57:32.016Z,17.92
2019-04-01T15:00:00.850Z,18.71
2019-04-01T15:02:29.785Z,19.11
2019-04-01T15:04:58.716Z,18.88
2019-04-01T15:07:27.426Z,19.24
2019-04-01T15:09:56.149Z,19.43
2019-04-01T15:12:24.840Z,19.44
2019-04-01T15:14:53.539Z,19.46
2019-04-01T15:17:23.151Z,19.37
2019-04-01T15:19:51.835Z,19.16
2019-04-01T15:22:20.805Z,18.95
2019-04-01T15:24:49.545Z,20.44
2019-04-01T15:27:18.301Z,22.19
2019-04-01T15:29:46.965Z,23.45
2019-04-01T15:32:15.731Z,24.13
2019-04-01T15:34:44.426Z,24.77
2019-04-01T15:37:13.138Z,25.54
2019-04-01T15:39:41.934Z,25.98
2019-04-01T15:42:10.746Z,26.44
2019-04-01T15:44:39.530Z,26.72
2019-04-01T15:47:08.826Z,26.86
2019-04-01T15:49:38.058Z,27.12
2019-04-01T15:52:06.818Z,27.98
2019-04-01T15:54:35.510Z,27.60
2019-04-01T15:57:04.297Z,27.82
2019-04-01T15:59:33.914Z,28.07
2019-04-01T16:02:03.443Z,28.31
2019-04-01T16:04:32.261Z,28.40
2019-04-01T16:07:01.092Z,28.59
2019-04-01T16:09:29.764Z,28.75
2019-04-01T16:11:58.542Z,29.03
2019-04-01T16:14:27.296Z,29.06
2019-04-01T16:16:55.961Z,29.14
2019-04-01T16:19:24.650Z,29.13
2019-04-01T16:21:53.425Z,29.38
2019-04-01T16:24:22.164Z,29.36
2019-04-01T16:26:50.857Z,29.70
2019-04-01T16:29:19.539Z,29.83
2019-04-01T16:31:48.239Z,30.10
2019-04-01T16:34:17.037Z,30.48
2019-04-01T16:36:45.789Z,30.48
2019-04-01T16:39:15.914Z,30.81
2019-04-01T16:41:44.633Z,31.43
2019-04-01T16:44:14.298Z,31.36
2019-04-01T16:46:43.812Z,31.58
2019-04-01T16:49:12.505Z,31.29
2019-04-01T16:51:41.504Z,31.24
2019-04-01T16:54:11.601Z,31.48
2019-04-01T16:56:40.328Z,31.57
2019-04-01T16:59:09.011Z,31.61
2019-04-01T17:01:41.486Z,31.47
2019-04-01T17:04:09.841Z,31.82
2019-04-01T17:06:38.520Z,32.47
2019-04-01T17:09:08.708Z,32.48
2019-04-01T17:11:37.383Z,32.73
2019-04-01T17:14:08.890Z,32.77
2019-04-01T17:16:36.465Z,32.83
2019-04-01T17:19:05.149Z,32.93
2019-04-01T17:21:34.086Z,33.24
2019-04-01T17:24:03.301Z,33.35
2019-04-01T17:26:32.133Z,33.87
2019-04-01T17:29:00.834Z,33.93
2019-04-01T17:31:29.514Z,33.83
2019-04-01T17:33:58.194Z,34.55
2019-04-01T17:36:26.925Z,35.46
2019-04-01T17:38:55.623Z,35.71
2019-04-01T17:41:24.302Z,36.70
2019-04-01T17:43:52.982Z,36.68
2019-04-01T17:46:21.665Z,37.04
2019-04-01T17:48:50.357Z,36.73
2019-04-01T17:51:19.103Z,37.12
2019-04-01T17:53:47.785Z,37.28
2019-04-01T17:56:17.987Z,37.56
2019-04-01T17:58:46.760Z,37.76
2019-04-01T18:01:15.445Z,37.78
2019-04-01T18:03:47.410Z,37.58
2019-04-01T18:06:16.048Z,37.82
2019-04-01T18:08:44.716Z,37.71
2019-04-01T18:11:16.039Z,37.05
2019-04-01T18:13:43.814Z,37.44
2019-04-01T18:16:14.022Z,37.84
2019-04-01T18:18:42.884Z,37.40
2019-04-01T18:21:11.579Z,37.51
2019-04-01T18:23:40.371Z,37.92
2019-04-01T18:26:09.045Z,37.87
2019-04-01T18:28:37.757Z,37.91
2019-04-01T18:31:06.482Z,38.12
2019-04-01T18:33:35.322Z,37.95
2019-04-01T18:36:04.064Z,38.03
2019-04-01T18:38:32.821Z,38.14
2019-04-01T18:41:01.503Z,37.69
2019-04-01T18:43:30.184Z,37.37
2019-04-01T18:45:58.926Z,37.24
2019-04-01T18:48:27.636Z,37.36
2019-04-01T18:50:56.311Z,37.16
2019-04-01T18:53:28.262Z,36.98
2019-04-01T18:55:56.723Z,36.84
2019-04-01T18:58:25.499Z,36.75
2019-04-01T19:00:54.160Z,36.69
2019-04-01T19:03:24.158Z,36.38
2019-04-01T19:05:53.100Z,36.29
2019-04-01T19:08:21.775Z,36.24
2019-04-01T19:11:01.779Z,36.09
2019-04-01T19:13:20.991Z,35.79
2019-04-01T19:15:50.672Z,35.82
2019-04-01T19:18:20.272Z,35.90
2019-04-01T19:20:56.097Z,35.76
2019-04-01T19:23:19.413Z,35.81
2019-04-01T19:25:48.191Z,35.48
2019-04-01T19:28:18.458Z,35.70
2019-04-01T19:30:47.693Z,35.98
2019-04-01T19:33:17.938Z,36.03
2019-04-01T19:35:46.592Z,35.97
2019-04-01T19:38:15.288Z,36.52
2019-04-01T19:40:43.974Z,36.20
2019-04-01T19:43:12.741Z,36.55
2019-04-01T19:45:42.195Z,36.45
2019-04-01T19:48:10.880Z,36.22
2019-04-01T19:50:39.559Z,36.25
2019-04-01T19:53:08.271Z,36.37
2019-04-01T19:55:36.950Z,36.75
2019-04-01T19:58:05.637Z,36.97
2019-04-01T20:00:34.354Z,37.41
2019-04-01T20:03:03.044Z,37.56
2019-04-01T20:05:31.747Z,37.73
2019-04-01T20:08:00.423Z,37.72
2019-04-01T20:10:29.101Z,38.03
2019-04-01T20:12:57.789Z,38.38
2019-04-01T20:15:26.467Z,38.05
2019-04-01T20:17:56.592Z,38.21
2019-04-01T20:20:25.305Z,38.79
2019-04-01T20:22:54.471Z,38.98
2019-04-01T20:25:23.222Z,39.34
2019-04-01T20:27:51.890Z,39.47
2019-04-01T20:30:22.444Z,39.45
2019-04-01T20:32:51.110Z,39.95
2019-04-01T20:35:23.735Z,39.86
2019-04-01T20:37:50.226Z,40.00
2019-04-01T20:40:19.451Z,40.04
2019-04-01T20:42:48.130Z,40.36
2019-04-01T20:45:16.906Z,40.30
2019-04-01T20:47:45.592Z,40.51
2019-04-01T20:50:14.857Z,42.23
2019-04-01T20:52:43.528Z,40.53
2019-04-01T20:55:13.499Z,41.05
2019-04-01T20:57:42.684Z,40.79
2019-04-01T21:00:11.469Z,40.85
2019-04-01T21:02:40.260Z,40.67
2019-04-01T21:05:09.739Z,40.51
2019-04-01T21:07:38.413Z,40.40
2019-04-01T21:10:13.166Z,40.55
2019-04-01T21:12:42.852Z,40.86
2019-04-01T21:15:11.723Z,41.18
2019-04-01T21:17:40.437Z,42.04
2019-04-01T21:20:09.217Z,42.61
2019-04-01T21:22:37.882Z,42.65
2019-04-01T21:25:08.041Z,42.99
2019-04-01T21:27:36.709Z,43.22
2019-04-01T21:30:10.638Z,44.01
2019-04-01T21:32:39.335Z,43.73
2019-04-01T21:35:09.073Z,44.04
2019-04-01T21:37:38.298Z,44.87
2019-04-01T21:40:07.886Z,44.68
2019-04-01T21:42:37.071Z,45.19
2019-04-01T21:45:09.709Z,43.94
2019-04-01T21:47:38.376Z,43.37
2019-04-01T21:50:08.066Z,42.33
2019-04-01T21:52:36.753Z,41.87
2019-04-01T21:55:08.329Z,41.75
2019-04-01T21:57:37.170Z,41.66
2019-04-01T22:00:14.754Z,41.41
2019-04-01T22:02:44.070Z,41.35
2019-04-01T22:05:13.412Z,40.82
2019-04-01T22:07:42.151Z,40.79
2019-04-01T22:10:11.761Z,40.75
2019-04-01T22:12:40.502Z,40.49
2019-04-01T22:15:09.341Z,40.69
2019-04-01T22:17:38.183Z,40.55
2019-04-01T22:20:07.868Z,41.11
2019-04-01T22:22:37.530Z,40.58
2019-04-01T22:25:06.783Z,40.39
2019-04-01T22:27:35.580Z,40.51
2019-04-01T22:30:09.067Z,41.17
2019-04-01T22:32:37.795Z,41.40
2019-04-01T22:35:08.514Z,41.28
2019-04-01T22:37:37.971Z,41.97
2019-04-01T22:40:07.831Z,42.56
2019-04-01T22:42:36.507Z,44.96
2019-04-01T22:45:07.975Z,43.28
2019-04-01T22:47:36.815Z,43.74
2019-04-01T22:50:06.958Z,43.90
2019-04-01T22:52:35.890Z,44.47
2019-04-01T22:55:06.188Z,44.95
2019-04-01T22:57:35.029Z,45.61
2019-04-01T23:00:04.597Z,45.82
2019-04-01T23:02:33.268Z,46.60
2019-04-01T23:05:01.967Z,46.48
2019-04-01T23:07:30.665Z,47.10
2019-04-01T23:09:59.337Z,48.23
2019-04-01T23:12:27.994Z,48.37
2019-04-01T23:14:56.680Z,48.26
2019-04-01T23:17:25.374Z,48.64
2019-04-01T23:19:54.126Z,48.42
2019-04-01T23:22:22.802Z,48.39
2019-04-01T23:24:51.516Z,48.08
2019-04-01T23:27:20.150Z,48.18
2019-04-01T23:29:48.815Z,48.27
2019-04-01T23:32:17.499Z,48.20
2019-04-01T23:34:46.252Z,48.15
2019-04-01T23:37:14.926Z,48.32
2019-04-01T23:39:43.581Z,48.44
2019-04-01T23:42:12.238Z,48.46
2019-04-01T23:44:40.918Z,48.86
2019-04-01T23:47:09.591Z,49.03
2019-04-01T23:49:40.255Z,49.23
2019-04-01T23:52:08.675Z,49.34
2019-04-01T23:54:37.335Z,49.34
2019-04-01T23:57:06.024Z,49.60
2019-04-01T23:59:34.715Z,49.79
